Time;durP1;ratioP1;P1;durP2;ratioP2;P2;SDS_P1;SDS_P2;PMS_P1;PMS_P2;Temp;Humidity;BMP_temperature;BMP_pressure;BME280_temperature;BME280_humidity;BME280_pressure;Samples;Min_cycle;Max_cycle;Signal;HPM_P1;HPM_P2
2023/12/01 00:01:23;;;;;;;3.55;2.38;;;4.20;99.90;;;;;;5129245;28;20497;-57
2023/12/01 00:03:52;;;;;;;3.47;2.03;;;4.20;99.90;;;;;;5134727;28;20478;-58
2023/12/01 00:06:19;;;;;;;3.90;2.60;;;4.30;99.90;;;;;;5135080;28;20422;-56
2023/12/01 00:08:46;;;;;;;3.92;2.17;;;4.40;99.90;;;;;;5135330;28;20448;-56
2023/12/01 00:11:13;;;;;;;3.72;2.30;;;4.50;99.90;;;;;;5135468;28;20427;-57
2023/12/01 00:13:40;;;;;;;3.70;2.60;;;4.40;99.90;;;;;;5136120;28;20490;-57
2023/12/01 00:16:08;;;;;;;4.40;2.45;;;4.50;99.90;;;;;;5135733;28;20493;-57
2023/12/01 00:18:35;;;;;;;5.72;2.67;;;4.50;99.90;;;;;;5136168;28;20414;-57
2023/12/01 00:21:04;;;;;;;5.30;2.57;;;4.50;99.90;;;;;;5135624;28;20420;-58
2023/12/01 00:23:32;;;;;;;6.07;3.70;;;4.50;99.90;;;;;;5135632;28;20833;-58
2023/12/01 00:25:59;;;;;;;4.13;3.13;;;4.50;99.90;;;;;;5134823;28;20817;-57
2023/12/01 00:28:26;;;;;;;6.70;4.47;;;4.50;99.90;;;;;;5137255;27;20407;-56
2023/12/01 00:30:53;;;;;;;4.65;2.75;;;4.50;99.90;;;;;;5139918;27;20437;-57
2023/12/01 00:33:20;;;;;;;6.63;3.80;;;4.40;99.90;;;;;;5139216;27;20452;-57
2023/12/01 00:35:48;;;;;;;4.78;3.20;;;4.50;99.90;;;;;;5138878;27;20498;-57
2023/12/01 00:38:17;;;;;;;4.80;3.10;;;4.50;99.90;;;;;;5139125;27;20714;-57
2023/12/01 00:40:44;;;;;;;4.95;3.25;;;4.40;99.90;;;;;;5138611;27;20414;-58
2023/12/01 00:43:13;;;;;;;5.23;3.63;;;4.40;99.90;;;;;;5131630;27;20411;-58
2023/12/01 00:45:40;;;;;;;4.50;3.10;;;4.30;99.90;;;;;;5138394;27;20441;-57
2023/12/01 00:48:07;;;;;;;5.27;3.63;;;4.40;99.90;;;;;;5139744;27;20483;-57
2023/12/01 00:50:35;;;;;;;6.45;3.00;;;4.40;99.90;;;;;;5139387;27;20484;-57
2023/12/01 00:53:02;;;;;;;6.20;4.00;;;4.40;99.90;;;;;;5139586;27;20414;-57
2023/12/01 00:55:30;;;;;;;4.88;3.55;;;4.40;99.90;;;;;;5137875;27;20826;-57
2023/12/01 00:57:58;;;;;;;6.60;4.05;;;4.50;99.90;;;;;;5137864;27;20418;-58
2023/12/01 01:00:25;;;;;;;5.57;3.28;;;4.40;99.90;;;;;;5137468;27;20415;-58
2023/12/01 01:02:52;;;;;;;5.45;3.50;;;4.40;99.90;;;;;;5137673;27;20573;-56
2023/12/01 01:05:20;;;;;;;8.35;4.13;;;4.40;99.90;;;;;;5136654;27;20486;-58
2023/12/01 01:07:47;;;;;;;4.82;3.05;;;4.50;99.90;;;;;;5137440;27;20453;-57
2023/12/01 01:10:14;;;;;;;4.57;3.05;;;4.50;99.90;;;;;;5137167;27;20495;-57
2023/12/01 01:12:43;;;;;;;6.73;3.80;;;4.50;99.90;;;;;;5137215;27;20475;-57
2023/12/01 01:15:11;;;;;;;6.22;4.28;;;4.50;99.90;;;;;;5137033;27;20450;-58
2023/12/01 01:17:38;;;;;;;6.13;3.67;;;4.40;99.90;;;;;;5137195;27;20902;-57
2023/12/01 01:20:07;;;;;;;6.57;3.45;;;4.30;99.90;;;;;;5137913;27;20418;-57
2023/12/01 01:22:34;;;;;;;5.53;3.70;;;4.20;99.90;;;;;;5138122;27;20501;-56
2023/12/01 01:25:02;;;;;;;5.25;3.90;;;4.00;99.90;;;;;;5138192;27;20442;-57
2023/12/01 01:27:32;;;;;;;6.50;3.65;;;3.80;99.90;;;;;;5137107;27;20427;-57
2023/12/01 01:30:01;;;;;;;5.03;3.23;;;3.80;99.90;;;;;;5136965;27;20445;-57
2023/12/01 01:32:28;;;;;;;5.90;3.40;;;3.80;99.90;;;;;;5137639;27;20458;-53
2023/12/01 01:34:55;;;;;;;6.30;3.50;;;3.80;99.90;;;;;;5137105;27;20418;-57
2023/12/01 01:37:23;;;;;;;3.90;2.88;;;3.70;99.90;;;;;;5137155;27;20407;-56
2023/12/01 01:39:50;;;;;;;5.82;4.00;;;3.70;99.90;;;;;;5136910;27;20446;-55
2023/12/01 01:42:17;;;;;;;4.38;3.13;;;3.50;99.90;;;;;;5138221;27;20418;-57
2023/12/01 01:44:44;;;;;;;5.57;3.15;;;3.40;99.90;;;;;;5137947;27;20469;-55
2023/12/01 01:47:14;;;;;;;6.63;4.30;;;3.40;99.90;;;;;;5138422;27;20423;-57
2023/12/01 01:49:41;;;;;;;6.30;3.78;;;3.50;99.90;;;;;;5137753;27;20414;-57
2023/12/01 01:52:08;;;;;;;7.50;3.70;;;3.60;99.90;;;;;;5129915;27;20462;-57
2023/12/01 01:54:37;;;;;;;6.45;3.20;;;3.60;99.90;;;;;;5137669;27;20438;-57
2023/12/01 01:57:05;;;;;;;6.45;3.72;;;3.50;99.90;;;;;;5137306;27;20414;-55
2023/12/01 01:59:32;;;;;;;7.60;3.90;;;3.50;99.90;;;;;;5138013;27;20864;-55
2023/12/01 02:01:59;;;;;;;6.80;3.95;;;3.60;99.90;;;;;;5137566;27;20825;-57
2023/12/01 02:04:28;;;;;;;6.72;4.07;;;3.50;99.90;;;;;;5136757;27;20509;-57
2023/12/01 02:06:56;;;;;;;4.93;3.75;;;3.40;99.90;;;;;;5137527;27;20529;-57
2023/12/01 02:09:24;;;;;;;5.97;3.90;;;3.40;99.90;;;;;;5135891;27;20856;-58
2023/12/01 02:11:51;;;;;;;8.55;4.88;;;3.40;99.90;;;;;;5136247;27;20518;-57
2023/12/01 02:14:18;;;;;;;6.53;3.53;;;3.30;99.90;;;;;;5130921;27;20435;-55
2023/12/01 02:16:46;;;;;;;5.30;4.30;;;3.10;99.90;;;;;;5133810;27;20411;-57
2023/12/01 02:19:14;;;;;;;7.65;4.13;;;2.90;99.90;;;;;;5135567;27;20821;-57
2023/12/01 02:21:45;;;;;;;6.43;3.40;;;2.90;99.90;;;;;;5136650;27;20442;-57
2023/12/01 02:24:13;;;;;;;8.80;4.15;;;2.90;99.90;;;;;;5137130;27;20517;-57
2023/12/01 02:26:40;;;;;;;7.32;4.15;;;3.10;99.90;;;;;;5137618;27;20464;-57
2023/12/01 02:29:08;;;;;;;6.15;4.18;;;3.00;99.90;;;;;;5137333;27;20418;-58
2023/12/01 02:31:35;;;;;;;6.13;3.80;;;3.00;99.90;;;;;;5137750;27;20833;-57
2023/12/01 02:34:03;;;;;;;6.53;4.15;;;3.00;99.90;;;;;;5137743;27;20458;-57
2023/12/01 02:36:30;;;;;;;6.68;4.00;;;3.00;99.90;;;;;;5137313;27;20429;-57
2023/12/01 02:38:59;;;;;;;5.63;3.10;;;2.90;99.90;;;;;;5137384;27;20426;-56
2023/12/01 02:41:26;;;;;;;7.32;3.75;;;2.90;99.90;;;;;;5137236;27;20475;-57
2023/12/01 02:43:54;;;;;;;6.53;3.10;;;2.90;99.90;;;;;;5135075;27;20707;-58
2023/12/01 02:46:22;;;;;;;6.10;3.80;;;2.80;99.90;;;;;;5131552;27;20802;-58
2023/12/01 02:48:50;;;;;;;7.05;4.05;;;2.80;99.90;;;;;;5136144;27;20426;-58
2023/12/01 02:51:17;;;;;;;7.35;3.90;;;2.90;99.90;;;;;;5136494;27;20437;-58
2023/12/01 02:53:45;;;;;;;6.37;3.67;;;2.90;99.90;;;;;;5136424;27;20419;-58
2023/12/01 02:56:13;;;;;;;7.03;4.20;;;2.90;99.90;;;;;;5137360;27;20480;-60
2023/12/01 02:58:41;;;;;;;6.60;3.90;;;2.80;99.90;;;;;;5136567;27;20423;-58
2023/12/01 03:01:08;;;;;;;5.10;3.60;;;2.80;99.90;;;;;;5137170;27;20811;-58
2023/12/01 03:03:35;;;;;;;3.60;2.42;;;2.80;99.90;;;;;;5136522;27;20449;-57
2023/12/01 03:06:03;;;;;;;8.50;4.18;;;2.90;99.90;;;;;;5136913;27;20462;-57
2023/12/01 03:08:30;;;;;;;6.70;4.60;;;2.90;99.90;;;;;;5136643;27;20476;-55
2023/12/01 03:10:58;;;;;;;4.93;3.17;;;2.90;99.90;;;;;;5136689;27;20427;-57
2023/12/01 03:13:26;;;;;;;7.20;3.67;;;2.90;99.90;;;;;;5136090;27;20500;-57
2023/12/01 03:15:54;;;;;;;5.43;4.20;;;2.70;99.90;;;;;;5135972;27;20486;-55
2023/12/01 03:18:21;;;;;;;6.00;3.83;;;2.70;99.90;;;;;;5136693;27;20458;-57
2023/12/01 03:20:48;;;;;;;6.70;3.90;;;2.70;99.90;;;;;;5136186;27;20423;-57
2023/12/01 03:23:16;;;;;;;6.97;4.10;;;2.80;99.90;;;;;;5136440;27;20903;-57
2023/12/01 03:25:43;;;;;;;6.53;3.75;;;2.80;99.90;;;;;;5136376;27;20454;-57
2023/12/01 03:28:10;;;;;;;5.93;4.60;;;2.90;99.90;;;;;;5136515;27;20410;-56
2023/12/01 03:30:39;;;;;;;6.70;5.25;;;2.90;99.90;;;;;;5135932;27;20837;-58
2023/12/01 03:33:06;;;;;;;7.07;4.45;;;2.90;99.90;;;;;;5136492;27;20418;-58
2023/12/01 03:35:33;;;;;;;8.80;4.50;;;2.80;99.90;;;;;;5136138;27;20536;-57
2023/12/01 03:38:00;;;;;;;7.40;4.10;;;2.80;99.90;;;;;;5136548;27;20458;-57
2023/12/01 03:40:28;;;;;;;7.97;5.22;;;2.80;99.90;;;;;;5136097;27;20406;-58
2023/12/01 03:42:55;;;;;;;6.78;5.32;;;2.90;99.90;;;;;;5136534;27;20429;-58
2023/12/01 03:45:22;;;;;;;7.45;5.05;;;3.00;99.90;;;;;;5135961;27;20451;-57
2023/12/01 03:47:52;;;;;;;6.20;4.85;;;3.10;99.90;;;;;;5136386;27;20454;-58
2023/12/01 03:50:20;;;;;;;5.85;4.30;;;3.10;99.90;;;;;;5135508;27;20424;-57
2023/12/01 03:52:48;;;;;;;6.38;4.63;;;2.90;99.90;;;;;;5134534;27;20434;-57
2023/12/01 03:55:16;;;;;;;7.93;5.90;;;2.70;99.90;;;;;;5134416;27;20442;-57
2023/12/01 03:57:44;;;;;;;7.88;4.88;;;2.60;99.90;;;;;;5134386;27;20422;-55
2023/12/01 04:00:14;;;;;;;7.53;5.28;;;2.60;99.90;;;;;;5134213;28;20422;-58
2023/12/01 04:02:42;;;;;;;7.85;4.75;;;2.60;99.90;;;;;;5135379;27;20833;-57
2023/12/01 04:05:17;;;;;;;4.50;4.10;;;2.50;99.90;;;;;;5141012;27;20514;-58
2023/12/01 04:07:45;;;;;;;7.25;4.75;;;2.60;99.90;;;;;;5141318;27;20497;-56
2023/12/01 04:10:13;;;;;;;8.07;4.88;;;2.70;99.90;;;;;;5142719;27;20418;-58
2023/12/01 04:12:44;;;;;;;7.38;5.13;;;2.70;99.90;;;;;;5142065;27;20844;-58
2023/12/01 04:15:14;;;;;;;7.10;5.10;;;2.70;99.90;;;;;;5143043;27;20803;-59
2023/12/01 04:17:43;;;;;;;9.73;5.72;;;2.70;99.90;;;;;;5142171;27;20421;-58
2023/12/01 04:20:22;;;;;;;9.27;6.07;;;2.60;99.90;;;;;;5142281;27;20863;-58
2023/12/01 04:22:53;;;;;;;8.88;5.38;;;2.50;99.90;;;;;;5141923;27;20410;-59
2023/12/01 04:25:21;;;;;;;8.10;4.70;;;2.60;99.90;;;;;;5142149;27;20446;-59
2023/12/01 04:27:49;;;;;;;6.72;4.28;;;2.60;99.90;;;;;;5142694;27;20779;-58
2023/12/01 04:30:17;;;;;;;7.90;4.40;;;2.70;99.90;;;;;;5141916;27;21131;-59
2023/12/01 04:32:46;;;;;;;6.95;4.60;;;2.70;99.90;;;;;;5141029;27;20716;-59
2023/12/01 04:35:15;;;;;;;6.65;5.10;;;2.70;99.90;;;;;;5141473;27;20475;-59
2023/12/01 04:37:42;;;;;;;4.85;4.35;;;2.60;99.90;;;;;;5141393;27;20767;-59
2023/12/01 04:40:14;;;;;;;8.35;5.05;;;2.60;99.90;;;;;;5141393;27;20778;-58
2023/12/01 04:42:44;;;;;;;7.03;3.55;;;2.60;99.90;;;;;;5142454;27;20428;-58
2023/12/01 04:45:12;;;;;;;5.55;4.20;;;2.70;99.90;;;;;;5142410;27;20418;-57
2023/12/01 04:47:41;;;;;;;4.72;3.38;;;2.80;99.90;;;;;;5142411;27;20733;-59
2023/12/01 04:50:13;;;;;;;7.05;3.72;;;2.80;99.90;;;;;;5142831;27;20827;-59
2023/12/01 04:52:45;;;;;;;5.22;3.80;;;2.80;99.90;;;;;;5141124;27;20551;-59
2023/12/01 04:55:14;;;;;;;5.63;3.00;;;2.80;99.90;;;;;;5135070;27;20442;-59
2023/12/01 04:57:42;;;;;;;3.97;3.25;;;2.70;99.90;;;;;;5141857;27;20417;-59
2023/12/01 05:00:20;;;;;;;5.18;3.42;;;2.70;99.90;;;;;;5140926;27;20422;-59
2023/12/01 05:02:47;;;;;;;3.80;2.60;;;2.70;99.90;;;;;;5141055;27;20415;-59
2023/12/01 05:05:16;;;;;;;5.72;3.78;;;2.70;99.90;;;;;;5140933;27;20435;-60
2023/12/01 05:07:49;;;;;;;5.22;3.13;;;2.70;99.90;;;;;;5141063;27;20596;-59
2023/12/01 05:10:17;;;;;;;5.22;3.25;;;2.70;99.90;;;;;;5140910;27;20414;-58
2023/12/01 05:12:46;;;;;;;4.45;2.90;;;2.60;99.90;;;;;;5141281;27;20447;-59
2023/12/01 05:15:20;;;;;;;5.03;3.40;;;2.50;99.90;;;;;;5137208;27;20455;-58
2023/12/01 05:17:49;;;;;;;4.32;3.13;;;2.50;99.90;;;;;;5137587;27;20506;-60
2023/12/01 05:20:16;;;;;;;4.10;3.30;;;2.50;99.90;;;;;;5137184;27;20451;-60
2023/12/01 05:22:48;;;;;;;4.50;3.90;;;2.50;99.90;;;;;;5136160;27;20779;-59
2023/12/01 05:25:17;;;;;;;4.05;3.42;;;2.50;99.90;;;;;;5136686;27;20450;-59
2023/12/01 05:27:46;;;;;;;4.95;3.20;;;2.60;99.90;;;;;;5136696;27;20422;-59
2023/12/01 05:30:14;;;;;;;4.40;4.00;;;2.60;99.90;;;;;;5136519;27;20487;-60
2023/12/01 05:32:43;;;;;;;4.07;2.60;;;2.70;99.90;;;;;;5135113;27;20436;-59
2023/12/01 05:35:14;;;;;;;4.95;3.63;;;2.70;99.90;;;;;;5136192;27;20841;-59
2023/12/01 05:37:46;;;;;;;3.92;3.30;;;2.70;99.90;;;;;;5136532;27;20445;-59
2023/12/01 05:40:15;;;;;;;4.72;3.75;;;2.60;99.90;;;;;;5137127;27;20414;-59
2023/12/01 05:42:43;;;;;;;5.38;3.50;;;2.50;99.90;;;;;;5135615;27;20505;-60
2023/12/01 05:45:12;;;;;;;4.68;3.42;;;2.50;99.90;;;;;;5134954;27;20471;-59
2023/12/01 05:47:43;;;;;;;3.70;2.88;;;2.60;99.90;;;;;;5136995;27;20810;-59
2023/12/01 05:50:15;;;;;;;4.63;2.78;;;2.60;99.90;;;;;;5136923;27;20457;-59
2023/12/01 05:52:45;;;;;;;5.07;3.35;;;2.60;99.90;;;;;;5135844;27;20454;-60
2023/12/01 05:55:17;;;;;;;4.43;2.60;;;2.70;99.90;;;;;;5133929;27;20467;-59
2023/12/01 05:57:45;;;;;;;4.30;2.65;;;2.70;99.90;;;;;;5134328;27;20415;-60
2023/12/01 06:00:15;;;;;;;4.20;3.00;;;2.70;99.90;;;;;;5135700;27;20461;-60
2023/12/01 06:02:43;;;;;;;3.88;3.47;;;2.60;99.90;;;;;;5134942;27;20454;-59
2023/12/01 06:05:11;;;;;;;3.70;3.10;;;2.60;99.90;;;;;;5135792;27;20429;-60
2023/12/01 06:07:39;;;;;;;4.10;2.90;;;2.50;99.90;;;;;;5136912;27;20449;-59
2023/12/01 06:10:07;;;;;;;4.18;3.40;;;2.60;99.90;;;;;;5136445;27;20514;-59
2023/12/01 06:12:37;;;;;;;4.53;3.20;;;2.60;99.90;;;;;;5136858;27;20849;-58
2023/12/01 06:15:07;;;;;;;4.88;3.05;;;2.50;99.90;;;;;;5137151;27;20713;-58
2023/12/01 06:17:35;;;;;;;4.90;3.90;;;2.30;99.90;;;;;;5136263;27;20422;-59
2023/12/01 06:20:02;;;;;;;4.50;3.10;;;2.30;99.90;;;;;;5135684;27;20503;-58
2023/12/01 06:22:29;;;;;;;4.20;3.75;;;2.40;99.90;;;;;;5134286;27;20778;-59
2023/12/01 06:24:57;;;;;;;4.82;3.20;;;2.40;99.90;;;;;;5133079;27;20415;-59
2023/12/01 06:27:24;;;;;;;4.55;3.25;;;2.40;99.90;;;;;;5130745;27;20423;-59
2023/12/01 06:29:53;;;;;;;4.20;3.08;;;2.40;99.90;;;;;;5132870;27;20799;-59
2023/12/01 06:32:20;;;;;;;3.67;2.80;;;2.50;99.90;;;;;;5133723;27;20837;-59
2023/12/01 06:34:48;;;;;;;3.92;2.83;;;2.50;99.90;;;;;;5133381;27;20398;-58
2023/12/01 06:37:15;;;;;;;5.35;2.70;;;2.40;99.90;;;;;;5134777;27;20422;-58
2023/12/01 06:39:43;;;;;;;2.90;2.10;;;2.60;99.90;;;;;;5135758;27;20422;-58
2023/12/01 06:42:10;;;;;;;3.43;2.50;;;2.60;99.90;;;;;;5133849;27;20492;-58
2023/12/01 06:44:37;;;;;;;4.10;2.97;;;2.70;99.90;;;;;;5133523;27;20423;-58
2023/12/01 06:47:06;;;;;;;4.35;2.50;;;2.80;99.90;;;;;;5133927;27;20786;-58
2023/12/01 06:49:33;;;;;;;5.90;2.63;;;3.00;99.90;;;;;;5132799;27;20445;-58
2023/12/01 06:52:02;;;;;;;3.90;2.83;;;3.10;99.90;;;;;;5133176;27;20647;-58
2023/12/01 06:54:30;;;;;;;3.20;2.10;;;3.20;99.90;;;;;;5135289;27;20415;-59
2023/12/01 06:56:57;;;;;;;3.50;2.37;;;3.00;99.90;;;;;;5131194;27;20418;-58
2023/12/01 06:59:24;;;;;;;3.80;2.58;;;2.80;99.90;;;;;;5134276;27;20430;-58
2023/12/01 07:01:52;;;;;;;3.22;2.05;;;2.80;99.90;;;;;;5131921;27;20914;-59
2023/12/01 07:04:24;;;;;;;3.40;2.47;;;2.60;99.90;;;;;;5100428;28;20508;-58
2023/12/01 07:06:51;;;;;;;5.25;2.70;;;2.50;99.90;;;;;;5094122;28;20846;-57
2023/12/01 07:09:19;;;;;;;3.35;2.00;;;2.50;99.90;;;;;;5097329;28;20449;-57
2023/12/01 07:11:47;;;;;;;3.30;2.22;;;2.30;99.90;;;;;;5101115;28;20432;-56
2023/12/01 07:14:14;;;;;;;4.30;2.20;;;2.30;99.90;;;;;;5096020;28;20416;-56
2023/12/01 07:16:42;;;;;;;2.95;2.00;;;2.30;99.90;;;;;;5109230;28;20519;-56
2023/12/01 07:19:11;;;;;;;4.40;2.17;;;2.30;99.90;;;;;;5109682;28;20455;-57
2023/12/01 07:21:39;;;;;;;3.30;2.70;;;2.30;99.90;;;;;;5112097;28;20416;-57
2023/12/01 07:24:08;;;;;;;3.58;1.92;;;2.50;99.90;;;;;;5093242;28;20692;-58
2023/12/01 07:26:35;;;;;;;2.70;2.10;;;2.60;99.90;;;;;;5113429;28;20424;-58
2023/12/01 07:29:04;;;;;;;3.70;2.33;;;2.70;99.90;;;;;;5098575;27;20429;-58
2023/12/01 07:31:33;;;;;;;4.50;2.00;;;2.70;99.90;;;;;;5109365;28;20857;-58
2023/12/01 07:34:01;;;;;;;4.03;2.20;;;2.60;99.90;;;;;;5113509;28;20436;-57
2023/12/01 07:36:29;;;;;;;4.10;2.20;;;2.50;99.90;;;;;;5109768;28;20450;-58
2023/12/01 07:38:57;;;;;;;3.50;3.00;;;2.30;99.90;;;;;;5109472;28;20422;-54
2023/12/01 07:41:25;;;;;;;3.45;2.53;;;2.40;99.90;;;;;;5107298;28;20846;-54
2023/12/01 07:43:52;;;;;;;2.92;2.22;;;2.40;99.90;;;;;;5105577;28;20408;-54
2023/12/01 07:46:23;;;;;;;3.60;2.70;;;2.60;99.90;;;;;;5111686;28;20783;-54
2023/12/01 07:48:50;;;;;;;3.75;2.05;;;2.60;99.90;;;;;;5109790;28;20424;-56
2023/12/01 07:51:17;;;;;;;4.07;2.33;;;2.60;99.90;;;;;;5108987;28;20423;-55
2023/12/01 07:53:45;;;;;;;3.70;2.50;;;2.60;99.90;;;;;;5111313;28;20536;-53
2023/12/01 07:56:21;;;;;;;6.20;3.60;;;2.60;99.90;;;;;;5094310;28;20732;-55
2023/12/01 07:58:50;;;;;;;3.55;2.53;;;2.50;99.90;;;;;;5089746;28;20412;-54
2023/12/01 08:01:17;;;;;;;5.13;2.70;;;2.30;99.90;;;;;;5088614;28;20430;-55
2023/12/01 08:03:46;;;;;;;5.25;3.05;;;2.20;99.90;;;;;;5105043;28;20416;-56
2023/12/01 08:06:14;;;;;;;5.70;3.20;;;2.30;99.90;;;;;;5101190;28;20835;-53
2023/12/01 08:08:41;;;;;;;5.90;3.70;;;2.40;99.90;;;;;;5090837;28;20437;-55
2023/12/01 08:11:08;;;;;;;5.88;2.80;;;2.50;99.90;;;;;;5090417;28;20461;-55
2023/12/01 08:13:37;;;;;;;4.13;2.53;;;2.50;99.90;;;;;;5105077;28;20429;-56
2023/12/01 08:16:05;;;;;;;4.53;2.80;;;2.70;99.90;;;;;;5112015;28;20446;-53
2023/12/01 08:18:33;;;;;;;5.20;3.08;;;2.70;99.90;;;;;;5099286;28;20428;-55
2023/12/01 08:21:00;;;;;;;5.35;3.05;;;2.70;99.90;;;;;;5105239;28;20527;-57
2023/12/01 08:23:27;;;;;;;4.57;2.78;;;2.70;99.90;;;;;;5107475;28;20737;-57
2023/12/01 08:25:55;;;;;;;4.93;2.80;;;2.50;99.90;;;;;;5105569;28;20548;-56
2023/12/01 08:28:22;;;;;;;5.88;2.83;;;2.50;99.90;;;;;;5102873;28;20835;-59
2023/12/01 08:30:51;;;;;;;6.22;1.92;;;2.60;99.90;;;;;;5112169;28;20566;-58
2023/12/01 08:33:18;;;;;;;4.90;2.85;;;2.60;99.90;;;;;;5094349;28;20481;-59
2023/12/01 08:35:46;;;;;;;4.78;2.75;;;3.00;99.90;;;;;;5101084;28;20424;-58
2023/12/01 08:38:14;;;;;;;5.32;3.00;;;3.10;99.90;;;;;;5111767;28;20420;-58
2023/12/01 08:40:41;;;;;;;4.47;2.40;;;3.00;99.90;;;;;;5108542;28;20470;-58
2023/12/01 08:43:08;;;;;;;4.20;2.40;;;3.00;99.90;;;;;;5099459;28;20424;-58
2023/12/01 08:45:35;;;;;;;5.47;3.08;;;2.90;99.90;;;;;;5105602;28;20469;-58
2023/12/01 08:48:05;;;;;;;3.67;2.17;;;2.90;99.90;;;;;;5105742;28;20422;-57
2023/12/01 08:50:33;;;;;;;4.63;2.05;;;2.90;99.90;;;;;;5110540;28;20707;-59
2023/12/01 08:53:00;;;;;;;5.80;3.05;;;3.00;99.90;;;;;;5095733;28;20438;-58
2023/12/01 08:55:27;;;;;;;4.93;2.45;;;3.00;99.90;;;;;;5110780;28;20416;-57
2023/12/01 08:57:55;;;;;;;5.25;3.45;;;3.00;99.90;;;;;;5094427;28;21016;-59
2023/12/01 09:00:23;;;;;;;4.75;2.75;;;2.90;99.90;;;;;;5093869;28;20856;-58
2023/12/01 09:02:50;;;;;;;5.15;2.05;;;2.90;99.90;;;;;;5103261;28;20723;-59
2023/12/01 09:05:19;;;;;;;5.20;3.40;;;2.80;99.90;;;;;;5100319;28;20834;-58
2023/12/01 09:07:48;;;;;;;4.50;2.63;;;2.60;99.90;;;;;;5110860;28;20459;-57
2023/12/01 09:10:16;;;;;;;4.60;3.03;;;2.50;99.90;;;;;;5114257;28;20924;-58
2023/12/01 09:12:43;;;;;;;6.50;4.07;;;2.60;99.90;;;;;;5110563;28;20458;-60
2023/12/01 09:15:11;;;;;;;5.60;3.00;;;2.70;99.90;;;;;;5096446;28;20702;-58
2023/12/01 09:17:39;;;;;;;5.65;3.20;;;2.90;99.90;;;;;;5104625;28;20431;-59
2023/12/01 09:20:09;;;;;;;6.83;3.80;;;3.10;99.90;;;;;;5106001;28;20691;-58
2023/12/01 09:22:38;;;;;;;3.50;2.45;;;3.10;99.90;;;;;;5112160;28;20518;-59
2023/12/01 09:25:07;;;;;;;4.18;2.60;;;3.00;99.90;;;;;;5108429;28;20441;-57
2023/12/01 09:27:34;;;;;;;5.00;2.70;;;3.10;99.90;;;;;;5115608;28;20922;-59
2023/12/01 09:30:01;;;;;;;4.65;2.30;;;3.20;99.90;;;;;;5115613;28;20420;-59
2023/12/01 09:32:28;;;;;;;3.88;2.28;;;3.30;99.90;;;;;;5102742;28;20437;-59
2023/12/01 09:34:56;;;;;;;4.47;2.75;;;3.30;99.90;;;;;;5095319;28;20527;-60
2023/12/01 09:37:24;;;;;;;4.90;2.85;;;3.40;99.90;;;;;;5110575;28;20420;-59
2023/12/01 09:39:53;;;;;;;3.97;2.58;;;3.40;99.90;;;;;;5115830;28;20706;-58
2023/12/01 09:42:23;;;;;;;4.70;2.42;;;3.40;99.90;;;;;;5111999;28;20420;-58
2023/12/01 09:44:53;;;;;;;4.05;2.13;;;3.50;99.90;;;;;;5114982;28;20535;-58
2023/12/01 09:47:22;;;;;;;5.50;2.50;;;3.60;99.90;;;;;;5114680;28;20432;-59
2023/12/01 09:49:50;;;;;;;3.85;2.47;;;3.60;99.90;;;;;;5115052;28;20485;-58
2023/12/01 09:52:17;;;;;;;3.75;2.08;;;3.60;99.90;;;;;;5114135;28;20426;-59
2023/12/01 09:54:45;;;;;;;5.60;2.58;;;3.60;99.90;;;;;;5109359;28;20858;-58
2023/12/01 09:57:15;;;;;;;5.93;2.33;;;3.60;99.90;;;;;;5096143;28;20541;-59
2023/12/01 09:59:43;;;;;;;4.33;2.70;;;3.60;99.90;;;;;;5104111;28;20445;-59
2023/12/01 10:02:10;;;;;;;5.00;2.70;;;3.60;99.90;;;;;;5114489;28;20729;-59
2023/12/01 10:04:38;;;;;;;5.10;2.40;;;3.60;99.90;;;;;;5113589;28;20424;-59
2023/12/01 10:07:05;;;;;;;5.00;2.70;;;3.50;99.90;;;;;;5113473;28;20420;-59
2023/12/01 10:09:33;;;;;;;6.45;2.95;;;3.50;99.90;;;;;;5113049;28;20510;-59
2023/12/01 10:12:17;;;;;;;4.00;2.70;;;3.50;99.90;;;;;;5113870;28;20459;-59
2023/12/01 10:14:45;;;;;;;4.10;2.60;;;3.40;99.90;;;;;;5114925;28;20430;-59
2023/12/01 10:17:13;;;;;;;5.57;3.20;;;3.40;99.90;;;;;;5103502;28;20428;-59
2023/12/01 10:19:47;;;;;;;4.40;2.05;;;3.50;99.90;;;;;;5103268;28;20701;-59
2023/12/01 10:22:16;;;;;;;4.40;2.70;;;3.40;99.90;;;;;;5100241;28;20427;-59
2023/12/01 10:24:53;;;;;;;4.23;3.00;;;3.50;99.90;;;;;;5113554;28;20509;-60
2023/12/01 10:27:21;;;;;;;5.95;3.70;;;3.40;99.90;;;;;;5109892;28;20743;-59
2023/12/01 10:29:50;;;;;;;6.03;2.70;;;3.30;99.90;;;;;;5097843;28;20429;-58
2023/12/01 10:32:19;;;;;;;5.70;3.55;;;3.20;99.90;;;;;;5094111;28;20511;-57
2023/12/01 10:34:52;;;;;;;4.45;3.55;;;3.10;99.90;;;;;;5105741;28;20489;-59
2023/12/01 10:37:20;;;;;;;7.30;3.93;;;3.10;99.90;;;;;;5108950;28;20513;-58
2023/12/01 10:39:52;;;;;;;7.82;3.70;;;3.00;99.90;;;;;;5094758;28;20512;-60
2023/12/01 10:42:20;;;;;;;8.07;4.40;;;3.10;99.90;;;;;;5095944;28;20461;-59
2023/12/01 10:44:50;;;;;;;8.50;4.30;;;3.20;99.90;;;;;;5114001;28;20904;-59
2023/12/01 10:47:19;;;;;;;7.13;4.30;;;3.40;99.90;;;;;;5105938;28;20428;-59
2023/12/01 10:49:48;;;;;;;5.45;3.00;;;3.50;99.90;;;;;;5114774;28;20470;-59
2023/12/01 10:52:16;;;;;;;7.30;3.90;;;3.60;99.90;;;;;;5111346;28;20421;-58
2023/12/01 10:54:44;;;;;;;6.30;3.45;;;3.50;99.90;;;;;;5113254;28;20493;-59
2023/12/01 10:57:19;;;;;;;6.80;3.00;;;3.50;99.90;;;;;;5099419;28;20430;-59
2023/12/01 10:59:56;;;;;;;6.88;3.33;;;3.60;99.90;;;;;;5107236;28;20426;-59
2023/12/01 11:02:25;;;;;;;5.63;3.45;;;3.70;99.90;;;;;;5101659;28;20442;-59
2023/12/01 11:04:52;;;;;;;6.50;3.40;;;3.80;99.90;;;;;;5103509;28;20422;-59
2023/12/01 11:07:33;;;;;;;6.25;4.10;;;3.90;99.90;;;;;;5107720;28;20477;-66
2023/12/01 11:10:09;;;;;;;6.03;3.60;;;3.80;99.90;;;;;;5107273;28;20434;-58
2023/12/01 11:12:47;;;;;;;5.88;3.60;;;3.80;99.90;;;;;;5095890;28;20472;-57
2023/12/01 11:15:20;;;;;;;5.63;2.90;;;3.70;99.90;;;;;;5094979;28;20465;-59
2023/12/01 11:17:48;;;;;;;7.53;3.92;;;3.60;99.90;;;;;;5091272;28;20487;-58
2023/12/01 11:20:36;;;;;;;7.70;3.90;;;3.50;99.90;;;;;;5090170;28;20847;-58
2023/12/01 11:23:19;;;;;;;6.40;4.90;;;3.70;99.90;;;;;;5089671;28;20429;-57
2023/12/01 11:25:48;;;;;;;8.27;3.87;;;3.70;99.90;;;;;;5089769;28;20417;-56
2023/12/01 11:28:20;;;;;;;8.43;4.75;;;3.70;99.90;;;;;;5092114;28;20414;-57
2023/12/01 11:31:14;;;;;;;9.68;5.25;;;3.70;99.90;;;;;;5092542;28;20426;-57
2023/12/01 11:33:44;;;;;;;8.60;6.18;;;3.70;99.90;;;;;;5091119;28;20462;-56
2023/12/01 11:36:26;;;;;;;9.30;5.40;;;3.60;99.90;;;;;;5090865;28;20433;-57
2023/12/01 11:39:20;;;;;;;8.93;5.30;;;3.40;99.90;;;;;;5102566;28;20427;-55
2023/12/01 11:41:54;;;;;;;11.10;5.10;;;3.30;99.90;;;;;;5105320;28;20508;-53
2023/12/01 11:44:24;;;;;;;8.70;4.53;;;3.40;99.90;;;;;;5107872;28;20424;-57
2023/12/01 11:46:56;;;;;;;10.13;5.80;;;3.60;99.90;;;;;;5111511;28;20420;-56
2023/12/01 11:49:25;;;;;;;10.50;5.65;;;3.70;99.90;;;;;;5111804;28;20419;-56
2023/12/01 11:51:53;;;;;;;9.87;6.53;;;3.80;99.90;;;;;;5094653;28;20420;-55
2023/12/01 11:54:21;;;;;;;12.00;5.95;;;3.70;99.90;;;;;;5096738;28;20430;-55
2023/12/01 11:56:50;;;;;;;11.60;5.90;;;3.70;99.90;;;;;;5090487;28;20429;-57
2023/12/01 11:59:18;;;;;;;10.30;6.20;;;3.60;99.90;;;;;;5093199;28;20452;-57
2023/12/01 12:01:46;;;;;;;13.27;6.82;;;3.30;99.90;;;;;;5094085;28;20475;-57
2023/12/01 12:04:16;;;;;;;11.53;6.33;;;3.30;99.90;;;;;;5093501;28;20483;-56
2023/12/01 12:06:44;;;;;;;10.98;6.80;;;3.30;99.90;;;;;;5107628;28;20862;-57
2023/12/01 12:09:17;;;;;;;11.88;6.55;;;3.20;99.90;;;;;;5096751;28;20721;-58
2023/12/01 12:11:45;;;;;;;13.15;7.28;;;3.20;99.90;;;;;;5092261;28;20453;-57
2023/12/01 12:14:13;;;;;;;13.55;7.30;;;3.00;99.90;;;;;;5093038;28;20433;-57
2023/12/01 12:16:40;;;;;;;14.43;7.32;;;2.90;99.90;;;;;;5091667;28;20410;-56
2023/12/01 12:19:08;;;;;;;12.80;8.25;;;3.20;99.90;;;;;;5092140;28;20445;-55
2023/12/01 12:21:37;;;;;;;14.95;7.75;;;3.30;99.90;;;;;;5091169;28;20428;-55
2023/12/01 12:24:05;;;;;;;13.77;8.45;;;3.30;99.90;;;;;;5108552;28;20427;-56
2023/12/01 12:26:33;;;;;;;12.50;7.53;;;3.30;99.90;;;;;;5116487;28;20420;-57
2023/12/01 12:29:02;;;;;;;16.02;7.10;;;3.20;99.90;;;;;;5116745;28;20424;-55
2023/12/01 12:31:32;;;;;;;10.82;6.22;;;3.40;99.90;;;;;;5117085;28;20414;-56
2023/12/01 12:34:01;;;;;;;15.57;7.82;;;3.50;99.90;;;;;;5115544;28;20424;-55
2023/12/01 12:36:30;;;;;;;13.13;7.22;;;3.50;99.90;;;;;;5114569;28;20458;-55
2023/12/01 12:39:03;;;;;;;12.27;7.53;;;3.40;99.90;;;;;;5112863;28;20829;-55
2023/12/01 12:41:32;;;;;;;12.30;7.32;;;3.40;99.90;;;;;;5114808;28;20426;-56
2023/12/01 12:44:00;;;;;;;15.05;8.07;;;3.40;99.90;;;;;;5104247;28;20425;-54
2023/12/01 12:46:31;;;;;;;12.13;7.47;;;3.40;99.90;;;;;;5106592;28;20427;-54
2023/12/01 12:49:00;;;;;;;12.60;7.72;;;3.40;99.90;;;;;;5112014;28;20700;-53
2023/12/01 12:51:29;;;;;;;14.25;8.65;;;3.70;99.90;;;;;;5113129;28;20518;-57
2023/12/01 12:53:57;;;;;;;10.27;5.95;;;3.80;99.90;;;;;;5112229;28;20527;-56
2023/12/01 12:56:27;;;;;;;12.20;7.32;;;3.90;99.90;;;;;;5114034;28;20477;-58
2023/12/01 12:58:56;;;;;;;12.57;7.40;;;3.60;99.90;;;;;;5094890;28;20834;-57
2023/12/01 13:01:25;;;;;;;12.45;7.20;;;3.50;99.90;;;;;;5096169;28;20414;-59
2023/12/01 13:03:53;;;;;;;17.60;9.70;;;3.50;99.90;;;;;;5095430;28;20429;-59